sensor_id;sensor_type;location;lat;lon;timestamp;pressure;altitude;pressure_sealevel;temperature;humidity
28428;BME280;15662;49.128;8.520;2023-06-05T00:01:19;100493.16;;;21.67;32.50
28428;BME280;15662;49.128;8.520;2023-06-05T00:03:47;100495.44;;;21.60;32.75
28428;BME280;15662;49.128;8.520;2023-06-05T00:06:15;100501.16;;;21.56;33.05
28428;BME280;15662;49.128;8.520;2023-06-05T00:08:43;100505.25;;;21.49;33.34
28428;BME280;15662;49.128;8.520;2023-06-05T00:11:11;100506.75;;;21.40;33.25
28428;BME280;15662;49.128;8.520;2023-06-05T00:13:38;100508.31;;;21.30;33.38
28428;BME280;15662;49.128;8.520;2023-06-05T00:16:06;100507.88;;;21.23;33.52
28428;BME280;15662;49.128;8.520;2023-06-05T00:18:35;100506.56;;;21.16;33.48
28428;BME280;15662;49.128;8.520;2023-06-05T00:21:03;100499.75;;;21.10;33.39
28428;BME280;15662;49.128;8.520;2023-06-05T00:23:31;100512.00;;;21.02;33.56
28428;BME280;15662;49.128;8.520;2023-06-05T00:25:59;100505.19;;;20.96;33.94
28428;BME280;15662;49.128;8.520;2023-06-05T00:28:27;100510.16;;;20.90;34.27
28428;BME280;15662;49.128;8.520;2023-06-05T00:30:55;100504.19;;;20.84;34.07
28428;BME280;15662;49.128;8.520;2023-06-05T00:33:23;100492.75;;;20.81;34.03
28428;BME280;15662;49.128;8.520;2023-06-05T00:35:50;100494.88;;;20.76;34.13
28428;BME280;15662;49.128;8.520;2023-06-05T00:38:19;100500.28;;;20.76;34.43
28428;BME280;15662;49.128;8.520;2023-06-05T00:40:47;100502.31;;;20.72;34.48
28428;BME280;15662;49.128;8.520;2023-06-05T00:43:16;100499.72;;;20.71;34.92
28428;BME280;15662;49.128;8.520;2023-06-05T00:45:44;100498.06;;;20.68;34.70
28428;BME280;15662;49.128;8.520;2023-06-05T00:48:13;100501.84;;;20.66;34.82
28428;BME280;15662;49.128;8.520;2023-06-05T00:50:41;100501.97;;;20.64;34.75
28428;BME280;15662;49.128;8.520;2023-06-05T00:53:09;100502.03;;;20.63;35.12
28428;BME280;15662;49.128;8.520;2023-06-05T00:55:37;100499.56;;;20.59;35.33
28428;BME280;15662;49.128;8.520;2023-06-05T00:58:05;100506.84;;;20.57;35.54
28428;BME280;15662;49.128;8.520;2023-06-05T01:00:33;100514.19;;;20.55;35.42
28428;BME280;15662;49.128;8.520;2023-06-05T01:03:01;100500.06;;;20.52;35.66
28428;BME280;15662;49.128;8.520;2023-06-05T01:05:30;100509.09;;;20.51;35.66
28428;BME280;15662;49.128;8.520;2023-06-05T01:07:57;100511.13;;;20.47;35.69
28428;BME280;15662;49.128;8.520;2023-06-05T01:10:25;100507.72;;;20.44;35.69
28428;BME280;15662;49.128;8.520;2023-06-05T01:13:06;100508.50;;;20.46;35.86
28428;BME280;15662;49.128;8.520;2023-06-05T01:15:36;100515.22;;;20.39;35.84
28428;BME280;15662;49.128;8.520;2023-06-05T01:18:06;100511.97;;;20.33;35.86
28428;BME280;15662;49.128;8.520;2023-06-05T01:20:38;100519.00;;;20.36;35.86
28428;BME280;15662;49.128;8.520;2023-06-05T01:23:07;100517.28;;;20.35;35.96
28428;BME280;15662;49.128;8.520;2023-06-05T01:25:36;100513.78;;;20.33;35.98
28428;BME280;15662;49.128;8.520;2023-06-05T01:28:23;100521.13;;;20.31;36.29
28428;BME280;15662;49.128;8.520;2023-06-05T01:31:13;100516.22;;;20.23;36.41
28428;BME280;15662;49.128;8.520;2023-06-05T01:33:57;100518.44;;;20.17;36.12
28428;BME280;15662;49.128;8.520;2023-06-05T01:36:30;100500.28;;;20.06;36.51
28428;BME280;15662;49.128;8.520;2023-06-05T01:39:00;100513.81;;;20.04;36.50
28428;BME280;15662;49.128;8.520;2023-06-05T01:41:28;100508.72;;;20.00;36.37
28428;BME280;15662;49.128;8.520;2023-06-05T01:43:57;100506.03;;;20.00;36.57
28428;BME280;15662;49.128;8.520;2023-06-05T01:46:25;100508.94;;;19.97;36.74
28428;BME280;15662;49.128;8.520;2023-06-05T01:48:53;100503.53;;;19.97;36.71
28428;BME280;15662;49.128;8.520;2023-06-05T01:51:21;100504.59;;;19.94;37.03
28428;BME280;15662;49.128;8.520;2023-06-05T01:53:49;100505.56;;;19.93;37.07
28428;BME280;15662;49.128;8.520;2023-06-05T01:56:17;100498.56;;;19.91;36.94
28428;BME280;15662;49.128;8.520;2023-06-05T01:58:52;100497.97;;;19.86;37.01
28428;BME280;15662;49.128;8.520;2023-06-05T02:01:20;100498.34;;;19.79;37.23
28428;BME280;15662;49.128;8.520;2023-06-05T02:03:50;100503.06;;;19.76;37.27
28428;BME280;15662;49.128;8.520;2023-06-05T02:06:21;100498.91;;;19.70;37.53
28428;BME280;15662;49.128;8.520;2023-06-05T02:08:50;100494.59;;;19.68;37.48
28428;BME280;15662;49.128;8.520;2023-06-05T02:11:17;100494.97;;;19.62;37.76
28428;BME280;15662;49.128;8.520;2023-06-05T02:13:45;100489.91;;;19.55;37.65
28428;BME280;15662;49.128;8.520;2023-06-05T02:16:17;100498.19;;;19.52;37.70
28428;BME280;15662;49.128;8.520;2023-06-05T02:18:45;100493.09;;;19.48;38.02
28428;BME280;15662;49.128;8.520;2023-06-05T02:21:16;100503.59;;;19.22;38.29
28428;BME280;15662;49.128;8.520;2023-06-05T02:23:44;100510.41;;;19.28;38.07
28428;BME280;15662;49.128;8.520;2023-06-05T02:26:13;100514.13;;;19.25;38.16
28428;BME280;15662;49.128;8.520;2023-06-05T02:28:40;100515.38;;;19.20;38.18
28428;BME280;15662;49.128;8.520;2023-06-05T02:31:08;100506.72;;;19.15;38.14
28428;BME280;15662;49.128;8.520;2023-06-05T02:33:36;100522.13;;;19.11;38.15
28428;BME280;15662;49.128;8.520;2023-06-05T02:36:04;100517.06;;;19.06;38.14
28428;BME280;15662;49.128;8.520;2023-06-05T02:38:32;100519.06;;;19.03;38.24
28428;BME280;15662;49.128;8.520;2023-06-05T02:41:01;100514.97;;;18.96;38.43
28428;BME280;15662;49.128;8.520;2023-06-05T02:43:29;100510.78;;;18.92;38.50
28428;BME280;15662;49.128;8.520;2023-06-05T02:45:56;100520.81;;;18.88;38.56
28428;BME280;15662;49.128;8.520;2023-06-05T02:48:25;100516.47;;;18.86;38.51
28428;BME280;15662;49.128;8.520;2023-06-05T02:50:54;100512.16;;;18.83;38.68
28428;BME280;15662;49.128;8.520;2023-06-05T02:53:23;100515.88;;;18.80;38.68
28428;BME280;15662;49.128;8.520;2023-06-05T02:55:50;100506.25;;;18.76;38.75
28428;BME280;15662;49.128;8.520;2023-06-05T02:58:19;100514.31;;;18.76;38.96
28428;BME280;15662;49.128;8.520;2023-06-05T03:00:55;100506.47;;;18.73;38.97
28428;BME280;15662;49.128;8.520;2023-06-05T03:03:35;100506.63;;;18.70;39.15
28428;BME280;15662;49.128;8.520;2023-06-05T03:06:03;100499.84;;;18.63;39.20
28428;BME280;15662;49.128;8.520;2023-06-05T03:08:42;100507.19;;;18.60;39.33
28428;BME280;15662;49.128;8.520;2023-06-05T03:11:14;100506.75;;;18.51;39.09
28428;BME280;15662;49.128;8.520;2023-06-05T03:13:42;100515.78;;;18.50;39.39
28428;BME280;15662;49.128;8.520;2023-06-05T03:16:10;100499.06;;;18.45;39.40
28428;BME280;15662;49.128;8.520;2023-06-05T03:18:42;100512.75;;;18.41;39.29
28428;BME280;15662;49.128;8.520;2023-06-05T03:21:10;100507.63;;;18.36;39.52
28428;BME280;15662;49.128;8.520;2023-06-05T03:23:39;100512.94;;;18.38;39.48
28428;BME280;15662;49.128;8.520;2023-06-05T03:26:07;100512.03;;;18.37;39.52
28428;BME280;15662;49.128;8.520;2023-06-05T03:28:36;100496.13;;;18.34;39.62
28428;BME280;15662;49.128;8.520;2023-06-05T03:31:07;100501.66;;;18.31;39.71
28428;BME280;15662;49.128;8.520;2023-06-05T03:33:41;100505.28;;;18.30;39.64
28428;BME280;15662;49.128;8.520;2023-06-05T03:36:09;100514.38;;;18.27;39.97
28428;BME280;15662;49.128;8.520;2023-06-05T03:38:37;100509.09;;;18.26;40.00
28428;BME280;15662;49.128;8.520;2023-06-05T03:41:05;100515.41;;;18.25;40.06
28428;BME280;15662;49.128;8.520;2023-06-05T03:43:35;100513.69;;;18.24;40.17
28428;BME280;15662;49.128;8.520;2023-06-05T03:46:04;100511.16;;;18.21;40.46
28428;BME280;15662;49.128;8.520;2023-06-05T03:48:32;100515.81;;;18.17;40.40
28428;BME280;15662;49.128;8.520;2023-06-05T03:51:00;100508.72;;;18.16;40.42
28428;BME280;15662;49.128;8.520;2023-06-05T03:53:29;100511.41;;;18.16;40.34
28428;BME280;15662;49.128;8.520;2023-06-05T03:55:58;100511.59;;;18.13;40.47
28428;BME280;15662;49.128;8.520;2023-06-05T03:58:33;100509.78;;;18.14;40.59
28428;BME280;15662;49.128;8.520;2023-06-05T04:01:03;100517.13;;;18.10;40.77
28428;BME280;15662;49.128;8.520;2023-06-05T04:03:31;100519.28;;;18.03;41.12
28428;BME280;15662;49.128;8.520;2023-06-05T04:05:59;100512.59;;;17.95;41.21
28428;BME280;15662;49.128;8.520;2023-06-05T04:08:28;100520.16;;;17.87;41.56
28428;BME280;15662;49.128;8.520;2023-06-05T04:10:56;100521.91;;;17.88;41.77
28428;BME280;15662;49.128;8.520;2023-06-05T04:13:24;100521.22;;;17.84;41.74
28428;BME280;15662;49.128;8.520;2023-06-05T04:15:52;100526.63;;;17.83;42.01
28428;BME280;15662;49.128;8.520;2023-06-05T04:18:21;100531.38;;;17.77;42.07
28428;BME280;15662;49.128;8.520;2023-06-05T04:20:52;100518.22;;;17.73;42.13
28428;BME280;15662;49.128;8.520;2023-06-05T04:23:19;100523.56;;;17.73;42.12
28428;BME280;15662;49.128;8.520;2023-06-05T04:25:47;100526.97;;;17.76;42.26
28428;BME280;15662;49.128;8.520;2023-06-05T04:28:17;100530.50;;;17.77;42.03
28428;BME280;15662;49.128;8.520;2023-06-05T04:30:44;100535.47;;;17.85;42.06
28428;BME280;15662;49.128;8.520;2023-06-05T04:33:15;100528.06;;;17.90;42.16
28428;BME280;15662;49.128;8.520;2023-06-05T04:35:43;100531.38;;;17.95;42.30
28428;BME280;15662;49.128;8.520;2023-06-05T04:38:11;100526.63;;;18.00;42.52
28428;BME280;15662;49.128;8.520;2023-06-05T04:40:42;100537.19;;;18.03;42.60
28428;BME280;15662;49.128;8.520;2023-06-05T04:43:11;100524.47;;;18.07;42.64
28428;BME280;15662;49.128;8.520;2023-06-05T04:45:40;100523.34;;;18.11;42.64
28428;BME280;15662;49.128;8.520;2023-06-05T04:48:10;100534.44;;;18.20;42.53
28428;BME280;15662;49.128;8.520;2023-06-05T04:50:38;100533.06;;;18.29;42.14
28428;BME280;15662;49.128;8.520;2023-06-05T04:53:09;100537.84;;;18.40;41.93
28428;BME280;15662;49.128;8.520;2023-06-05T04:55:40;100538.91;;;18.53;41.74
28428;BME280;15662;49.128;8.520;2023-06-05T04:58:08;100545.38;;;18.65;41.57
28428;BME280;15662;49.128;8.520;2023-06-05T05:00:36;100542.13;;;18.75;41.55
28428;BME280;15662;49.128;8.520;2023-06-05T05:03:06;100536.22;;;18.85;41.25
28428;BME280;15662;49.128;8.520;2023-06-05T05:05:34;100532.25;;;18.92;41.09
28428;BME280;15662;49.128;8.520;2023-06-05T05:08:05;100533.78;;;18.96;41.11
28428;BME280;15662;49.128;8.520;2023-06-05T05:10:32;100530.66;;;19.03;41.13
28428;BME280;15662;49.128;8.520;2023-06-05T05:13:00;100521.38;;;19.09;40.72
28428;BME280;15662;49.128;8.520;2023-06-05T05:15:30;100525.47;;;19.16;40.58
28428;BME280;15662;49.128;8.520;2023-06-05T05:17:59;100531.22;;;19.24;40.48
28428;BME280;15662;49.128;8.520;2023-06-05T05:20:31;100537.78;;;19.34;40.36
28428;BME280;15662;49.128;8.520;2023-06-05T05:23:03;100539.22;;;19.40;40.31
28428;BME280;15662;49.128;8.520;2023-06-05T05:25:31;100534.28;;;19.48;40.03
28428;BME280;15662;49.128;8.520;2023-06-05T05:27:59;100538.41;;;19.54;39.96
28428;BME280;15662;49.128;8.520;2023-06-05T05:30:27;100541.78;;;19.57;39.82
28428;BME280;15662;49.128;8.520;2023-06-05T05:32:55;100535.03;;;19.66;39.64
28428;BME280;15662;49.128;8.520;2023-06-05T05:35:24;100539.94;;;19.74;39.46
28428;BME280;15662;49.128;8.520;2023-06-05T05:37:52;100537.81;;;19.79;39.34
28428;BME280;15662;49.128;8.520;2023-06-05T05:40:20;100540.06;;;19.87;39.19
28428;BME280;15662;49.128;8.520;2023-06-05T05:42:48;100542.53;;;19.90;38.95
28428;BME280;15662;49.128;8.520;2023-06-05T05:45:16;100539.47;;;19.96;38.83
28428;BME280;15662;49.128;8.520;2023-06-05T05:47:44;100540.06;;;20.01;38.97
28428;BME280;15662;49.128;8.520;2023-06-05T05:50:14;100548.59;;;20.07;38.89
28428;BME280;15662;49.128;8.520;2023-06-05T05:52:42;100555.44;;;20.13;39.16
28428;BME280;15662;49.128;8.520;2023-06-05T05:55:16;100546.97;;;20.19;38.81
28428;BME280;15662;49.128;8.520;2023-06-05T05:57:44;100538.41;;;20.27;38.94
28428;BME280;15662;49.128;8.520;2023-06-05T06:00:15;100547.75;;;20.35;38.37
28428;BME280;15662;49.128;8.520;2023-06-05T06:02:43;100543.78;;;20.41;38.43
28428;BME280;15662;49.128;8.520;2023-06-05T06:05:11;100552.38;;;20.48;38.14
28428;BME280;15662;49.128;8.520;2023-06-05T06:07:40;100558.69;;;20.61;38.16
28428;BME280;15662;49.128;8.520;2023-06-05T06:10:10;100547.97;;;20.74;37.88
28428;BME280;15662;49.128;8.520;2023-06-05T06:12:40;100552.47;;;20.87;37.80
28428;BME280;15662;49.128;8.520;2023-06-05T06:15:09;100556.09;;;21.01;37.89
28428;BME280;15662;49.128;8.520;2023-06-05T06:17:37;100551.50;;;21.16;38.39
28428;BME280;15662;49.128;8.520;2023-06-05T06:20:07;100552.16;;;21.33;38.54
28428;BME280;15662;49.128;8.520;2023-06-05T06:22:37;100550.34;;;21.47;38.81
28428;BME280;15662;49.128;8.520;2023-06-05T06:25:06;100548.97;;;21.67;38.67
28428;BME280;15662;49.128;8.520;2023-06-05T06:27:34;100549.41;;;21.86;38.64
28428;BME280;15662;49.128;8.520;2023-06-05T06:30:03;100545.44;;;22.04;38.37
28428;BME280;15662;49.128;8.520;2023-06-05T06:32:31;100542.31;;;22.23;38.28
28428;BME280;15662;49.128;8.520;2023-06-05T06:34:59;100545.44;;;22.43;38.04
28428;BME280;15662;49.128;8.520;2023-06-05T06:37:29;100545.91;;;22.60;37.72
28428;BME280;15662;49.128;8.520;2023-06-05T06:39:58;100548.13;;;22.79;37.49
28428;BME280;15662;49.128;8.520;2023-06-05T06:42:26;100551.22;;;22.99;37.27
28428;BME280;15662;49.128;8.520;2023-06-05T06:45:15;100550.72;;;23.17;37.10
28428;BME280;15662;49.128;8.520;2023-06-05T06:47:43;100552.38;;;23.31;36.93
28428;BME280;15662;49.128;8.520;2023-06-05T06:50:31;100544.50;;;23.39;35.89
28428;BME280;15662;49.128;8.520;2023-06-05T06:52:59;100553.06;;;23.57;35.69
28428;BME280;15662;49.128;8.520;2023-06-05T06:55:30;100548.56;;;23.69;35.34
28428;BME280;15662;49.128;8.520;2023-06-05T06:57:59;100548.63;;;23.80;34.80
28428;BME280;15662;49.128;8.520;2023-06-05T07:00:27;100544.31;;;23.89;34.36
28428;BME280;15662;49.128;8.520;2023-06-05T07:02:55;100548.03;;;23.99;34.16
28428;BME280;15662;49.128;8.520;2023-06-05T07:05:24;100557.25;;;24.08;33.67
28428;BME280;15662;49.128;8.520;2023-06-05T07:07:53;100551.25;;;24.15;33.35
28428;BME280;15662;49.128;8.520;2023-06-05T07:10:21;100544.63;;;24.19;33.44
28428;BME280;15662;49.128;8.520;2023-06-05T07:12:49;100553.97;;;24.27;33.26
28428;BME280;15662;49.128;8.520;2023-06-05T07:15:20;100542.28;;;24.15;33.68
28428;BME280;15662;49.128;8.520;2023-06-05T07:17:50;100548.31;;;24.30;33.70
28428;BME280;15662;49.128;8.520;2023-06-05T07:20:19;100551.66;;;24.44;32.95
28428;BME280;15662;49.128;8.520;2023-06-05T07:22:48;100538.59;;;24.50;32.73
28428;BME280;15662;49.128;8.520;2023-06-05T07:25:16;100550.41;;;24.60;32.51
28428;BME280;15662;49.128;8.520;2023-06-05T07:27:46;100548.81;;;24.68;32.42
28428;BME280;15662;49.128;8.520;2023-06-05T07:30:13;100550.16;;;24.74;31.88
28428;BME280;15662;49.128;8.520;2023-06-05T07:32:42;100549.50;;;24.82;31.92
28428;BME280;15662;49.128;8.520;2023-06-05T07:35:10;100539.13;;;24.87;31.93
28428;BME280;15662;49.128;8.520;2023-06-05T07:37:39;100544.06;;;24.93;31.64
28428;BME280;15662;49.128;8.520;2023-06-05T07:40:07;100535.41;;;24.99;31.59
28428;BME280;15662;49.128;8.520;2023-06-05T07:42:38;100542.69;;;25.10;31.43
28428;BME280;15662;49.128;8.520;2023-06-05T07:45:08;100534.63;;;25.19;31.67
28428;BME280;15662;49.128;8.520;2023-06-05T07:47:37;100534.00;;;25.27;31.17
28428;BME280;15662;49.128;8.520;2023-06-05T07:50:06;100539.22;;;25.40;31.27
28428;BME280;15662;49.128;8.520;2023-06-05T07:52:36;100536.97;;;25.45;31.32
28428;BME280;15662;49.128;8.520;2023-06-05T07:55:04;100536.19;;;25.54;31.09
28428;BME280;15662;49.128;8.520;2023-06-05T07:57:33;100534.81;;;25.60;30.69
28428;BME280;15662;49.128;8.520;2023-06-05T08:00:02;100524.56;;;25.63;30.50
28428;BME280;15662;49.128;8.520;2023-06-05T08:02:39;100534.88;;;25.69;30.21
28428;BME280;15662;49.128;8.520;2023-06-05T08:05:08;100533.50;;;25.75;29.71
28428;BME280;15662;49.128;8.520;2023-06-05T08:07:36;100519.69;;;25.78;29.68
28428;BME280;15662;49.128;8.520;2023-06-05T08:10:06;100522.09;;;25.81;29.71
28428;BME280;15662;49.128;8.520;2023-06-05T08:12:34;100521.84;;;25.84;29.55
28428;BME280;15662;49.128;8.520;2023-06-05T08:15:02;100520.84;;;25.85;29.34
28428;BME280;15662;49.128;8.520;2023-06-05T08:17:30;100522.31;;;25.89;29.25
28428;BME280;15662;49.128;8.520;2023-06-05T08:19:58;100517.28;;;25.85;28.87
28428;BME280;15662;49.128;8.520;2023-06-05T08:22:26;100516.28;;;25.86;29.00
28428;BME280;15662;49.128;8.520;2023-06-05T08:24:56;100522.31;;;25.89;29.06
28428;BME280;15662;49.128;8.520;2023-06-05T08:27:26;100519.59;;;25.89;29.18
28428;BME280;15662;49.128;8.520;2023-06-05T08:29:54;100517.72;;;25.90;28.66
28428;BME280;15662;49.128;8.520;2023-06-05T08:32:23;100518.34;;;25.93;28.74
28428;BME280;15662;49.128;8.520;2023-06-05T08:34:51;100516.22;;;25.97;28.94
28428;BME280;15662;49.128;8.520;2023-06-05T08:37:18;100504.81;;;26.03;28.78
28428;BME280;15662;49.128;8.520;2023-06-05T08:39:46;100509.84;;;26.08;28.77
28428;BME280;15662;49.128;8.520;2023-06-05T08:42:15;100519.16;;;26.15;28.70
28428;BME280;15662;49.128;8.520;2023-06-05T08:44:48;100513.44;;;26.18;28.71
28428;BME280;15662;49.128;8.520;2023-06-05T08:47:30;100513.44;;;26.18;28.51
28428;BME280;15662;49.128;8.520;2023-06-05T08:50:04;100511.91;;;26.25;28.31
28428;BME280;15662;49.128;8.520;2023-06-05T08:52:39;100503.47;;;26.28;28.23
28428;BME280;15662;49.128;8.520;2023-06-05T08:55:10;100506.06;;;26.30;28.40
28428;BME280;15662;49.128;8.520;2023-06-05T08:57:40;100507.09;;;26.38;28.44
28428;BME280;15662;49.128;8.520;2023-06-05T09:00:10;100504.22;;;26.40;28.42
28428;BME280;15662;49.128;8.520;2023-06-05T09:02:41;100496.69;;;26.43;28.64
28428;BME280;15662;49.128;8.520;2023-06-05T09:05:15;100496.13;;;26.49;28.58
28428;BME280;15662;49.128;8.520;2023-06-05T09:07:44;100501.75;;;26.58;28.75
28428;BME280;15662;49.128;8.520;2023-06-05T09:10:23;100501.78;;;26.67;28.84
28428;BME280;15662;49.128;8.520;2023-06-05T09:13:01;100484.59;;;26.67;28.62
28428;BME280;15662;49.128;8.520;2023-06-05T09:15:34;100492.19;;;26.73;28.51
28428;BME280;15662;49.128;8.520;2023-06-05T09:18:10;100493.78;;;26.75;28.54
28428;BME280;15662;49.128;8.520;2023-06-05T09:20:44;100501.22;;;26.83;28.57
28428;BME280;15662;49.128;8.520;2023-06-05T09:23:27;100479.03;;;26.88;28.61
28428;BME280;15662;49.128;8.520;2023-06-05T09:25:59;100488.50;;;26.93;28.89
28428;BME280;15662;49.128;8.520;2023-06-05T09:28:27;100493.50;;;26.98;28.87
28428;BME280;15662;49.128;8.520;2023-06-05T09:31:03;100492.81;;;27.06;28.80
28428;BME280;15662;49.128;8.520;2023-06-05T09:33:34;100488.38;;;27.05;29.19
28428;BME280;15662;49.128;8.520;2023-06-05T09:36:13;100488.09;;;27.17;29.11
28428;BME280;15662;49.128;8.520;2023-06-05T09:38:41;100490.56;;;27.20;29.29
28428;BME280;15662;49.128;8.520;2023-06-05T09:41:12;100485.38;;;27.27;29.13
28428;BME280;15662;49.128;8.520;2023-06-05T09:43:41;100477.94;;;27.29;29.28
28428;BME280;15662;49.128;8.520;2023-06-05T09:46:14;100477.91;;;27.39;29.23
28428;BME280;15662;49.128;8.520;2023-06-05T09:48:52;100473.91;;;27.43;29.33
28428;BME280;15662;49.128;8.520;2023-06-05T09:51:21;100474.75;;;27.43;29.47
28428;BME280;15662;49.128;8.520;2023-06-05T09:53:50;100475.59;;;27.53;29.49
28428;BME280;15662;49.128;8.520;2023-06-05T09:56:22;100460.69;;;27.58;29.58
28428;BME280;15662;49.128;8.520;2023-06-05T09:58:52;100473.75;;;27.64;29.75
28428;BME280;15662;49.128;8.520;2023-06-05T10:01:23;100479.19;;;27.73;29.94
28428;BME280;15662;49.128;8.520;2023-06-05T10:04:06;100466.41;;;27.84;29.76
28428;BME280;15662;49.128;8.520;2023-06-05T10:06:36;100470.69;;;27.86;29.63
28428;BME280;15662;49.128;8.520;2023-06-05T10:09:07;100463.06;;;27.90;29.85
28428;BME280;15662;49.128;8.520;2023-06-05T10:11:39;100456.31;;;27.94;29.91
28428;BME280;15662;49.128;8.520;2023-06-05T10:14:09;100462.03;;;28.00;29.69
28428;BME280;15662;49.128;8.520;2023-06-05T10:16:38;100466.88;;;28.07;29.82
28428;BME280;15662;49.128;8.520;2023-06-05T10:19:07;100466.25;;;28.13;29.97
28428;BME280;15662;49.128;8.520;2023-06-05T10:21:36;100460.69;;;28.14;29.88
28428;BME280;15662;49.128;8.520;2023-06-05T10:24:22;100461.94;;;28.20;30.15
28428;BME280;15662;49.128;8.520;2023-06-05T10:30:09;100450.56;;;28.34;29.99
28428;BME280;15662;49.128;8.520;2023-06-05T10:38:46;100446.78;;;28.45;30.13
28428;BME280;15662;49.128;8.520;2023-06-05T10:41:17;100462.59;;;28.59;29.48
28428;BME280;15662;49.128;8.520;2023-06-05T10:43:52;100458.25;;;28.66;29.23
28428;BME280;15662;49.128;8.520;2023-06-05T10:46:37;100456.06;;;28.70;29.47
28428;BME280;15662;49.128;8.520;2023-06-05T10:49:12;100444.88;;;28.73;29.39
28428;BME280;15662;49.128;8.520;2023-06-05T10:51:48;100448.38;;;28.83;29.58
28428;BME280;15662;49.128;8.520;2023-06-05T10:59:21;100443.81;;;29.01;28.27
28428;BME280;15662;49.128;8.520;2023-06-05T11:07:28;100437.47;;;29.19;28.10
28428;BME280;15662;49.128;8.520;2023-06-05T11:15:37;100429.94;;;29.39;27.56
28428;BME280;15662;49.128;8.520;2023-06-05T11:18:32;100422.28;;;29.42;27.28
28428;BME280;15662;49.128;8.520;2023-06-05T11:21:01;100415.97;;;29.42;27.50
28428;BME280;15662;49.128;8.520;2023-06-05T11:23:29;100413.81;;;29.53;27.33
28428;BME280;15662;49.128;8.520;2023-06-05T11:26:41;100408.47;;;29.62;27.00
28428;BME280;15662;49.128;8.520;2023-06-05T11:29:14;100412.06;;;29.44;26.82
28428;BME280;15662;49.128;8.520;2023-06-05T11:31:44;100403.69;;;29.64;26.37
28428;BME280;15662;49.128;8.520;2023-06-05T11:34:14;100398.94;;;29.74;26.15
28428;BME280;15662;49.128;8.520;2023-06-05T11:36:42;100400.72;;;29.83;26.28
28428;BME280;15662;49.128;8.520;2023-06-05T11:39:10;100401.94;;;29.89;25.91
28428;BME280;15662;49.128;8.520;2023-06-05T11:41:47;100405.88;;;29.94;25.91
28428;BME280;15662;49.128;8.520;2023-06-05T11:44:16;100393.25;;;29.93;25.71
28428;BME280;15662;49.128;8.520;2023-06-05T11:46:58;100389.66;;;29.93;24.53
28428;BME280;15662;49.128;8.520;2023-06-05T11:49:28;100393.06;;;29.95;24.75
28428;BME280;15662;49.128;8.520;2023-06-05T11:51:56;100396.16;;;29.92;24.72
28428;BME280;15662;49.128;8.520;2023-06-05T11:54:30;100397.00;;;29.92;24.29
28428;BME280;15662;49.128;8.520;2023-06-05T11:57:02;100397.31;;;29.89;24.23
28428;BME280;15662;49.128;8.520;2023-06-05T11:59:37;100390.84;;;29.90;24.20
28428;BME280;15662;49.128;8.520;2023-06-05T12:02:05;100389.84;;;29.91;24.17
28428;BME280;15662;49.128;8.520;2023-06-05T12:04:34;100389.84;;;29.91;23.79
28428;BME280;15662;49.128;8.520;2023-06-05T12:07:02;100392.91;;;29.96;23.98
28428;BME280;15662;49.128;8.520;2023-06-05T12:09:30;100388.13;;;29.98;23.42
28428;BME280;15662;49.128;8.520;2023-06-05T12:12:06;100392.63;;;30.07;23.12
28428;BME280;15662;49.128;8.520;2023-06-05T12:14:35;100384.41;;;30.07;23.16
28428;BME280;15662;49.128;8.520;2023-06-05T12:17:11;100381.38;;;30.11;23.04
28428;BME280;15662;49.128;8.520;2023-06-05T12:19:39;100381.69;;;30.07;23.33
28428;BME280;15662;49.128;8.520;2023-06-05T12:22:08;100371.78;;;30.06;22.76
28428;BME280;15662;49.128;8.520;2023-06-05T12:24:39;100381.84;;;30.06;23.06
28428;BME280;15662;49.128;8.520;2023-06-05T12:27:07;100376.72;;;30.03;22.56
28428;BME280;15662;49.128;8.520;2023-06-05T12:29:38;100376.53;;;30.04;22.59
28428;BME280;15662;49.128;8.520;2023-06-05T12:32:22;100368.19;;;30.06;22.42
28428;BME280;15662;49.128;8.520;2023-06-05T12:34:52;100374.69;;;30.05;22.45
28428;BME280;15662;49.128;8.520;2023-06-05T12:40:01;100361.66;;;29.99;22.29
28428;BME280;15662;49.128;8.520;2023-06-05T12:42:34;100364.75;;;29.96;22.14
28428;BME280;15662;49.128;8.520;2023-06-05T12:45:06;100373.94;;;29.95;22.54
28428;BME280;15662;49.128;8.520;2023-06-05T12:47:35;100368.16;;;29.98;22.27
28428;BME280;15662;49.128;8.520;2023-06-05T12:50:05;100355.69;;;29.95;22.07
28428;BME280;15662;49.128;8.520;2023-06-05T12:52:34;100350.13;;;29.71;22.51
28428;BME280;15662;49.128;8.520;2023-06-05T12:55:02;100353.91;;;29.78;22.01
28428;BME280;15662;49.128;8.520;2023-06-05T12:57:33;100361.44;;;29.84;21.55
28428;BME280;15662;49.128;8.520;2023-06-05T13:00:05;100351.03;;;29.88;21.28
28428;BME280;15662;49.128;8.520;2023-06-05T13:02:44;100348.97;;;29.90;21.37
28428;BME280;15662;49.128;8.520;2023-06-05T13:05:17;100353.09;;;29.94;21.70
28428;BME280;15662;49.128;8.520;2023-06-05T13:07:44;100353.31;;;30.00;21.32
28428;BME280;15662;49.128;8.520;2023-06-05T13:10:13;100334.88;;;30.02;21.70
28428;BME280;15662;49.128;8.520;2023-06-05T13:12:40;100348.22;;;30.05;21.78
28428;BME280;15662;49.128;8.520;2023-06-05T13:15:10;100347.34;;;30.05;21.74
28428;BME280;15662;49.128;8.520;2023-06-05T13:17:38;100338.13;;;30.06;21.48
28428;BME280;15662;49.128;8.520;2023-06-05T13:20:07;100326.84;;;30.09;21.19
28428;BME280;15662;49.128;8.520;2023-06-05T13:22:39;100327.22;;;30.14;21.27
28428;BME280;15662;49.128;8.520;2023-06-05T13:25:09;100324.34;;;30.16;20.92
28428;BME280;15662;49.128;8.520;2023-06-05T13:27:37;100322.28;;;30.18;21.27
28428;BME280;15662;49.128;8.520;2023-06-05T13:30:06;100323.50;;;30.23;21.18
28428;BME280;15662;49.128;8.520;2023-06-05T13:32:35;100306.06;;;30.24;20.72
28428;BME280;15662;49.128;8.520;2023-06-05T13:35:07;100318.56;;;30.27;20.90